.
WxDataArchive / Data Records for 2010-11-17
2010-11-16 November 2010 2010-11-18

Data Records for Wednesday, 17 November 2010

Time	Temp	Chill	HIndex	Humid	Dewpt	 Wind 	HiWind	WindDir	Rain 	Barom 
-----	----	-----	------	-----	-----	------	------	-------	-----	----- 
00:00	41.6	41.6	41.6	91	39.2	2	5	270	0.00	29.580 
00:05	41.5	41.5	41.5	91	39.1	3	7	270	0.00	29.580 
00:10	41.5	41.5	41.5	91	39.1	2	6	248	0.01	29.580 
00:15	41.5	41.5	41.5	92	39.4	2	5	338	0.00	29.587 
00:20	41.5	41.5	41.5	92	39.4	2	4	315	0.00	29.587 
00:25	41.5	41.5	41.5	92	39.4	3	6	270	0.00	29.587 
00:30	41.5	41.5	41.5	92	39.4	3	6	270	0.00	29.595 
00:35	41.3	41.3	41.3	92	39.2	3	5	270	0.00	29.595 
00:40	41.3	41.3	41.3	92	39.2	3	6	270	0.00	29.595 
00:45	41.3	41.3	41.3	92	39.2	3	6	270	0.00	29.608 
00:50	41.3	41.3	41.3	92	39.2	2	4	270	0.00	29.608 
00:55	41.2	41.2	41.2	91	38.8	2	4	270	0.00	29.608 
01:00	41.2	41.2	41.2	91	38.8	2	4	315	0.00	29.616 
01:05	41.1	41.1	41.1	91	38.7	3	5	270	0.00	29.616 
01:10	41.1	41.1	41.1	91	38.7	2	3	292	0.00	29.616 
01:15	41.1	41.1	41.1	91	38.7	2	5	315	0.00	29.625 
01:20	41.1	41.1	41.1	91	38.7	2	5	270	0.00	29.625 
01:25	40.9	40.9	40.9	91	38.5	2	4	270	0.00	29.625 
01:30	40.9	40.9	40.9	91	38.5	2	5	270	0.00	29.635 
01:35	40.9	40.9	40.9	91	38.5	2	4	270	0.00	29.635 
01:40	40.9	40.9	40.9	91	38.5	2	4	248	0.00	29.635 
01:45	40.8	40.8	40.8	91	38.4	1	4	248	0.00	29.641 
01:50	40.8	40.8	40.8	91	38.4	2	5	248	0.00	29.641 
01:55	40.8	40.8	40.8	91	38.4	2	4	248	0.00	29.641 
02:00	40.8	40.8	40.8	90	38.1	2	3	338	0.00	29.654 
02:05	40.9	40.9	40.9	90	38.2	1	3	292	0.00	29.654 
02:10	40.9	40.9	40.9	90	38.2	2	4	292	0.00	29.654 
02:15	40.9	40.9	40.9	88	37.6	2	5	248	0.00	29.661 
02:20	40.9	40.9	40.9	88	37.6	2	4	270	0.00	29.661 
02:25	40.9	40.9	40.9	87	37.3	2	3	225	0.00	29.661 
02:30	40.9	40.9	40.9	87	37.3	1	2	225	0.00	29.675 
02:35	40.9	40.9	40.9	86	37.0	1	3	225	0.00	29.675 
02:40	40.9	40.9	40.9	86	37.0	1	2	225	0.00	29.675 
02:45	40.9	40.9	40.9	86	37.0	1	4	248	0.00	29.691 
02:50	40.9	40.9	40.9	86	37.0	2	4	248	0.00	29.691 
02:55	40.9	40.9	40.9	85	36.7	1	4	248	0.00	29.691 
03:00	40.9	40.9	40.9	85	36.7	2	4	270	0.00	29.703 
03:05	40.9	40.9	40.9	85	36.7	1	4	270	0.00	29.703 
03:10	40.9	40.9	40.9	85	36.7	1	3	270	0.00	29.703 
03:15	40.9	40.9	40.9	85	36.7	1	3	270	0.00	29.712 
03:20	40.8	40.8	40.8	85	36.6	2	4	248	0.00	29.712 
03:25	40.8	40.8	40.8	84	36.3	2	5	248	0.00	29.712 
03:30	40.6	40.6	40.6	84	36.2	1	3	248	0.00	29.721 
03:35	40.5	40.5	40.5	84	36.1	1	3	248	0.00	29.721 
03:40	40.3	40.3	40.3	84	35.9	1	4	248	0.00	29.721 
03:45	40.2	40.2	40.2	84	35.8	1	5	270	0.00	29.732 
03:50	40.2	40.2	40.2	84	35.8	2	4	248	0.00	29.732 
03:55	40.1	40.1	40.1	84	35.7	1	4	248	0.00	29.732 
04:00	40.1	40.1	40.1	84	35.7	2	4	248	0.00	29.739 
04:05	39.9	39.9	39.9	84	35.5	1	4	248	0.00	29.739 
04:10	39.8	39.8	39.8	84	35.4	2	3	248	0.00	29.739 
04:15	39.8	39.8	39.8	85	35.7	2	6	248	0.00	29.750 
04:20	39.6	39.6	39.6	85	35.5	1	3	248	0.00	29.750 
04:25	39.5	39.5	39.5	85	35.4	2	3	248	0.00	29.750 
04:30	39.3	39.3	39.3	85	35.2	1	3	248	0.00	29.753 
04:35	39.2	39.2	39.2	85	35.1	1	3	248	0.00	29.753 
04:40	39.1	39.1	39.1	85	35.0	1	3	248	0.00	29.753 
04:45	38.9	38.9	38.9	86	35.1	2	4	248	0.00	29.758 
04:50	38.8	38.8	38.8	86	35.0	1	2	248	0.00	29.758 
04:55	38.8	38.8	38.8	86	35.0	1	3	248	0.00	29.758 
05:00	38.6	38.6	38.6	87	35.1	2	4	248	0.00	29.768 
05:05	38.6	38.6	38.6	87	35.1	1	4	248	0.00	29.768 
05:10	38.6	38.6	38.6	87	35.1	2	3	248	0.00	29.768 
05:15	38.5	38.5	38.5	87	35.0	1	4	248	0.00	29.782 
05:20	38.5	38.5	38.5	88	35.3	2	6	248	0.00	29.782 
05:25	38.5	38.5	38.5	88	35.3	1	3	248	0.00	29.782 
05:30	38.5	38.5	38.5	88	35.3	2	4	248	0.00	29.795 
05:35	38.5	38.5	38.5	88	35.3	2	4	248	0.00	29.795 
05:40	38.5	38.5	38.5	88	35.3	1	3	248	0.00	29.795 
05:45	38.3	38.3	38.3	89	35.3	1	4	248	0.00	29.800 
05:50	38.3	38.3	38.3	89	35.3	1	3	248	0.00	29.800 
05:55	38.3	38.3	38.3	89	35.3	1	3	248	0.00	29.800 
06:00	38.3	38.3	38.3	90	35.6	1	2	248	0.00	29.813 
06:05	38.3	38.3	38.3	90	35.6	1	4	248	0.00	29.813 
06:10	38.3	38.3	38.3	90	35.6	2	5	248	0.00	29.813 
06:15	38.3	38.3	38.3	91	35.9	1	3	248	0.00	29.822 
06:20	38.5	38.5	38.5	91	36.1	1	3	248	0.00	29.822 
06:25	38.3	38.3	38.3	91	35.9	2	4	248	0.00	29.822 
06:30	38.3	38.3	38.3	91	35.9	2	5	248	0.00	29.833 
06:35	38.3	38.3	38.3	91	35.9	2	5	225	0.00	29.833 
06:40	38.2	38.2	38.2	91	35.8	2	4	248	0.00	29.833 
06:45	38.0	38.0	38.0	92	35.9	2	5	248	0.00	29.841 
06:50	38.0	38.0	38.0	92	35.9	2	4	248	0.00	29.841 
06:55	38.0	38.0	38.0	92	35.9	2	6	248	0.00	29.841 
07:00	37.9	37.9	37.9	92	35.8	2	5	270	0.00	29.850 
07:05	37.8	37.8	37.8	92	35.7	2	3	248	0.00	29.850 
07:10	37.6	37.6	37.6	92	35.5	2	5	248	0.00	29.850 
07:15	37.6	37.6	37.6	92	35.5	2	4	248	0.00	29.866 
07:20	37.5	37.5	37.5	92	35.4	2	6	248	0.00	29.866 
07:25	37.3	37.3	37.3	91	34.9	2	5	248	0.00	29.866 
07:30	37.3	37.3	37.3	91	34.9	2	3	248	0.00	29.873 
07:35	37.2	37.2	37.2	91	34.8	2	3	248	0.00	29.873 
07:40	37.0	37.0	37.0	90	34.3	2	4	292	0.00	29.873 
07:45	37.0	37.0	37.0	90	34.3	1	3	270	0.00	29.883 
07:50	36.9	36.9	36.9	89	34.0	1	3	270	0.00	29.883 
07:55	36.9	36.9	36.9	88	33.7	2	4	248	0.00	29.883 
08:00	36.9	36.9	36.9	88	33.7	2	4	248	0.00	29.897 
08:05	37.0	37.0	37.0	87	33.5	2	4	248	0.00	29.897 
08:10	37.2	37.2	37.2	86	33.4	1	2	248	0.00	29.897 
08:15	37.2	37.2	37.2	86	33.4	0	2	248	0.00	29.911 
08:20	37.3	37.3	37.3	85	33.2	1	3	248	0.00	29.911 
08:25	37.6	37.6	37.6	84	33.2	1	3	248	0.00	29.911 
08:30	37.8	37.8	37.8	83	33.1	1	4	248	0.00	29.916 
08:35	37.9	37.9	37.9	82	32.9	1	5	248	0.00	29.916 
08:40	38.2	38.2	38.2	81	32.9	1	3	225	0.00	29.916 
08:45	38.5	38.5	38.5	80	32.9	1	3	248	0.00	29.927 
08:50	38.8	38.8	38.8	79	32.9	1	2	248	0.00	29.927 
08:55	39.1	39.1	39.1	78	32.8	1	3	248	0.00	29.927 
09:00	39.3	39.3	39.3	77	32.7	1	3	248	0.00	29.928 
09:05	39.8	39.8	39.8	76	32.9	1	3	248	0.00	29.928 
09:10	40.2	40.2	40.2	75	32.9	1	2	248	0.00	29.928 
09:15	40.6	40.6	40.6	75	33.3	1	3	248	0.00	29.933 
09:20	40.9	40.9	40.9	73	32.9	1	4	248	0.00	29.933 
09:25	41.3	41.3	41.3	73	33.3	1	4	248	0.00	29.933 
09:30	41.6	41.6	41.6	72	33.3	1	2	225	0.00	29.938 
09:35	41.8	41.8	41.8	71	33.1	2	3	270	0.00	29.938 
09:40	42.1	42.1	42.1	71	33.4	1	3	248	0.00	29.938 
09:45	42.3	42.3	42.3	70	33.2	1	3	248	0.00	29.943 
09:50	42.6	42.6	42.6	70	33.5	1	2	248	0.00	29.943 
09:55	42.8	42.8	42.8	70	33.7	1	3	248	0.00	29.943 
10:00	43.2	43.2	43.2	71	34.4	1	3	248	0.00	29.943 
10:05	43.3	43.3	43.3	70	34.2	1	4	248	0.00	29.943 
10:10	43.5	43.5	43.5	70	34.4	1	4	248	0.00	29.943 
10:15	43.8	43.8	43.8	69	34.3	1	5	248	0.00	29.952 
10:20	43.8	43.8	43.8	67	33.6	2	5	248	0.00	29.952 
10:25	43.9	43.9	43.9	68	34.0	2	5	248	0.00	29.952 
10:30	44.1	44.1	44.1	66	33.5	2	4	248	0.00	29.957 
10:35	44.3	44.3	44.3	66	33.7	1	3	248	0.00	29.957 
10:40	44.8	44.8	44.8	67	34.5	1	3	248	0.00	29.957 
10:45	44.9	44.9	44.9	65	33.9	2	4	248	0.00	29.963 
10:50	45.1	45.1	45.1	66	34.4	2	5	248	0.00	29.963 
10:55	45.2	45.2	45.2	65	34.1	1	5	248	0.00	29.963 
11:00	45.4	45.4	45.4	65	34.3	2	4	248	0.00	29.968 
11:05	45.7	45.7	45.7	63	33.8	2	3	248	0.00	29.968 
11:10	46.0	46.0	46.0	65	34.9	1	4	248	0.00	29.968 
11:15	46.1	46.1	46.1	64	34.6	2	4	248	0.00	29.970 
11:20	46.2	46.2	46.2	64	34.7	1	4	225	0.00	29.970 
11:25	46.4	46.4	46.4	64	34.9	2	4	248	0.00	29.970 
11:30	46.4	46.4	46.4	63	34.5	1	4	248	0.00	29.972 
11:35	46.5	46.5	46.5	63	34.6	1	4	270	0.00	29.972 
11:40	46.8	46.8	46.8	64	35.3	1	4	248	0.00	29.972 
11:45	47.1	47.1	47.1	63	35.2	1	5	248	0.00	29.976 
11:50	47.3	47.3	47.3	61	34.5	2	4	248	0.00	29.976 
11:55	47.6	47.6	47.6	62	35.2	2	3	270	0.00	29.976 
12:00	47.7	47.7	47.7	60	34.5	2	4	248	0.00	29.976 
12:05	48.2	48.2	48.2	62	35.8	1	5	248	0.00	29.976 
12:10	48.6	48.6	48.6	60	35.3	2	4	248	0.00	29.976 
12:15	48.8	48.8	48.8	60	35.5	2	3	248	0.00	29.975 
12:20	48.8	48.8	48.8	60	35.5	2	4	248	0.00	29.975 
12:25	48.8	48.8	48.8	60	35.5	2	4	248	0.00	29.975 
12:30	48.9	48.9	48.9	62	36.5	1	4	248	0.00	29.979 
12:35	49.1	49.1	49.1	63	37.1	1	5	248	0.00	29.979 
12:40	48.9	48.9	48.9	63	36.9	2	5	248	0.00	29.979 
12:45	48.5	48.5	48.5	63	36.5	2	5	248	0.00	29.981 
12:50	47.7	47.7	47.7	65	36.5	1	6	248	0.00	29.981 
12:55	47.4	47.4	47.4	66	36.6	1	3	248	0.00	29.981 
13:00	47.3	47.3	47.3	66	36.5	2	3	248	0.00	29.983 
13:05	47.3	47.3	47.3	67	36.9	1	4	248	0.00	29.983 
13:10	47.6	47.6	47.6	67	37.2	1	3	248	0.00	29.983 
13:15	47.7	47.7	47.7	66	36.9	2	4	248	0.00	29.985 
13:20	48.0	48.0	48.0	67	37.6	1	4	248	0.00	29.985 
13:25	48.2	48.2	48.2	67	37.8	0	3	248	0.00	29.985 
13:30	48.3	48.3	48.3	66	37.5	1	4	248	0.00	29.986 
13:35	48.3	48.3	48.3	67	37.9	2	6	248	0.00	29.986 
13:40	48.2	48.2	48.2	67	37.8	2	6	248	0.00	29.986 
13:45	48.5	48.5	48.5	68	38.4	1	3	248	0.00	29.989 
13:50	48.8	48.8	48.8	66	38.0	2	5	248	0.00	29.989 
13:55	49.1	49.1	49.1	66	38.2	1	4	248	0.00	29.989 
14:00	49.2	49.2	49.2	66	38.3	2	7	248	0.00	29.993 
14:05	49.5	49.5	49.5	68	39.4	2	5	248	0.00	29.993 
14:10	49.6	49.6	49.6	67	39.1	3	5	248	0.00	29.993 
14:15	49.8	49.8	49.8	68	39.7	2	4	248	0.00	29.997 
14:20	50.4	50.4	50.4	68	40.2	2	5	248	0.00	29.997 
14:25	50.4	50.4	50.4	68	40.2	3	6	248	0.00	29.997 
14:30	49.8	49.8	49.8	69	40.0	2	4	292	0.00	29.999 
14:35	49.5	49.5	49.5	70	40.1	2	4	292	0.00	29.999 
14:40	49.4	49.4	49.4	70	40.0	2	4	270	0.00	29.999 
14:45	49.4	49.4	49.4	70	40.0	3	9	248	0.00	30.002 
14:50	49.4	49.4	49.4	70	40.0	2	4	270	0.00	30.002 
14:55	49.4	49.4	49.4	69	39.7	3	6	270	0.00	30.002 
15:00	49.4	49.4	49.4	70	40.0	2	5	248	0.00	30.004 
15:05	49.5	49.5	49.5	70	40.1	2	6	248	0.00	30.004 
15:10	49.6	49.6	49.6	70	40.2	2	5	248	0.00	30.004 
15:15	49.9	49.9	49.9	69	40.1	2	7	270	0.00	30.004 
15:20	50.4	50.4	50.4	67	39.9	3	6	270	0.00	30.004 
15:25	51.0	51.0	51.0	65	39.7	3	6	248	0.00	30.004 
15:30	51.6	51.6	51.6	65	40.2	2	6	248	0.00	30.008 
15:35	51.7	51.7	51.7	65	40.3	2	6	248	0.00	30.008 
15:40	51.4	51.4	51.4	65	40.0	2	5	225	0.00	30.008 
15:45	50.7	50.7	50.7	65	39.4	3	6	248	0.00	30.016 
15:50	50.1	50.1	50.1	66	39.2	2	5	248	0.00	30.016 
15:55	49.8	49.8	49.8	67	39.3	1	4	248	0.00	30.016 
16:00	49.4	49.4	49.4	66	38.5	2	4	292	0.00	30.021 
16:05	49.1	49.1	49.1	67	38.6	2	4	270	0.00	30.021 
16:10	48.8	48.8	48.8	67	38.3	2	5	270	0.00	30.021 
16:15	48.8	48.8	48.8	68	38.7	1	3	270	0.00	30.031 
16:20	48.8	48.8	48.8	68	38.7	2	4	248	0.00	30.031 
16:25	48.6	48.6	48.6	68	38.5	1	2	248	0.00	30.031 
16:30	48.3	48.3	48.3	68	38.2	2	4	248	0.00	30.039 
16:35	48.2	48.2	48.2	68	38.1	2	4	248	0.00	30.039 
16:40	48.0	48.0	48.0	68	37.9	1	4	270	0.00	30.039 
16:45	47.9	47.9	47.9	68	37.9	1	3	270	0.00	30.048 
16:50	47.7	47.7	47.7	68	37.7	1	5	270	0.00	30.048 
16:55	47.7	47.7	47.7	67	37.3	1	3	248	0.00	30.048 
17:00	47.7	47.7	47.7	66	36.9	1	3	248	0.00	30.050 
17:05	47.7	47.7	47.7	65	36.5	1	5	248	0.00	30.050 
17:10	47.9	47.9	47.9	65	36.7	1	3	248	0.00	30.050 
17:15	47.9	47.9	47.9	65	36.7	1	3	248	0.00	30.056 
17:20	47.9	47.9	47.9	64	36.3	1	6	248	0.00	30.056 
17:25	47.7	47.7	47.7	64	36.1	1	3	248	0.00	30.056 
17:30	47.7	47.7	47.7	63	35.7	1	6	248	0.00	30.057 
17:35	47.6	47.6	47.6	63	35.6	2	5	270	0.00	30.057 
17:40	47.6	47.6	47.6	63	35.6	2	4	248	0.00	30.057 
17:45	47.4	47.4	47.4	63	35.4	2	4	248	0.00	30.066 
17:50	47.3	47.3	47.3	64	35.7	2	6	270	0.00	30.066 
17:55	47.1	47.1	47.1	65	35.9	2	4	248	0.00	30.066 
18:00	47.0	47.0	47.0	66	36.2	1	4	248	0.00	30.068 
18:05	46.7	46.7	46.7	68	36.7	2	4	270	0.00	30.068 
18:10	46.4	46.4	46.4	69	36.8	2	5	315	0.00	30.068 
18:15	46.1	46.1	46.1	69	36.5	3	5	270	0.00	30.079 
18:20	45.8	45.8	45.8	69	36.2	2	4	270	0.00	30.079 
18:25	45.5	45.5	45.5	70	36.3	2	4	270	0.00	30.079 
18:30	45.2	45.2	45.2	71	36.4	1	3	270	0.00	30.085 
18:35	44.8	44.8	44.8	72	36.3	0	3	270	0.00	30.085 
18:40	44.5	44.5	44.5	73	36.4	1	3	270	0.00	30.085 
18:45	44.1	44.1	44.1	73	36.0	1	3	270	0.00	30.086 
18:50	43.9	43.9	43.9	74	36.2	1	3	270	0.00	30.086 
18:55	43.6	43.6	43.6	75	36.2	0	2	270	0.00	30.086 
19:00	43.3	43.3	43.3	76	36.3	0	2	270	0.00	30.095 
19:05	43.1	43.1	43.1	76	36.1	0	0	---	0.00	30.095 
19:10	42.8	42.8	42.8	77	36.1	0	2	270	0.00	30.095 
19:15	42.6	42.6	42.6	78	36.2	0	2	270	0.00	30.101 
19:20	42.3	42.3	42.3	79	36.3	1	3	248	0.00	30.101 
19:25	42.1	42.1	42.1	80	36.4	1	5	248	0.00	30.101 
19:30	41.8	41.8	41.8	81	36.4	0	3	248	0.00	30.105 
19:35	41.5	41.5	41.5	81	36.1	0	1	248	0.00	30.105 
19:40	41.2	41.2	41.2	82	36.1	0	1	248	0.00	30.105 
19:45	40.9	40.9	40.9	83	36.1	0	2	248	0.00	30.116 
19:50	40.8	40.8	40.8	84	36.3	0	1	248	0.00	30.116 
19:55	40.6	40.6	40.6	84	36.2	0	2	248	0.00	30.116 
20:00	40.5	40.5	40.5	84	36.1	0	2	248	0.00	30.116 
20:05	40.3	40.3	40.3	85	36.2	0	2	248	0.00	30.116 
20:10	40.2	40.2	40.2	85	36.1	1	2	248	0.00	30.116 
20:15	40.1	40.1	40.1	85	36.0	1	3	248	0.00	30.119 
20:20	40.1	40.1	40.1	85	36.0	0	3	248	0.00	30.119 
20:25	39.9	39.9	39.9	86	36.1	1	3	248	0.00	30.119 
20:30	39.8	39.8	39.8	86	36.0	1	3	248	0.00	30.120 
20:35	39.8	39.8	39.8	86	36.0	1	4	248	0.00	30.120 
20:40	39.6	39.6	39.6	86	35.8	2	6	248	0.00	30.120 
20:45	39.6	39.6	39.6	86	35.8	1	4	248	0.00	30.124 
20:50	39.6	39.6	39.6	86	35.8	1	2	248	0.00	30.124 
20:55	39.6	39.6	39.6	86	35.8	1	2	248	0.00	30.124 
21:00	39.6	39.6	39.6	86	35.8	0	2	248	0.00	30.125 
21:05	39.6	39.6	39.6	86	35.8	1	3	248	0.00	30.125 
21:10	39.6	39.6	39.6	86	35.8	0	3	248	0.00	30.125 
21:15	39.6	39.6	39.6	86	35.8	1	3	248	0.00	30.120 
21:20	39.5	39.5	39.5	86	35.7	1	4	248	0.00	30.120 
21:25	39.5	39.5	39.5	86	35.7	1	3	248	0.00	30.120 
21:30	39.5	39.5	39.5	86	35.7	1	3	248	0.00	30.130 
21:35	39.5	39.5	39.5	86	35.7	2	4	248	0.00	30.130 
21:40	39.5	39.5	39.5	86	35.7	2	4	248	0.00	30.130 
21:45	39.5	39.5	39.5	86	35.7	1	4	248	0.00	30.133 
21:50	39.5	39.5	39.5	86	35.7	2	4	248	0.00	30.133 
21:55	39.5	39.5	39.5	86	35.7	2	6	248	0.00	30.133 
22:00	39.5	39.5	39.5	86	35.7	2	5	248	0.00	30.134 
22:05	39.5	39.5	39.5	86	35.7	1	3	248	0.00	30.134 
22:10	39.5	39.5	39.5	86	35.7	2	4	225	0.00	30.134 
22:15	39.3	39.3	39.3	86	35.5	2	5	225	0.00	30.133 
22:20	39.3	39.3	39.3	86	35.5	1	4	248	0.00	30.133 
22:25	39.5	39.5	39.5	86	35.7	2	6	248	0.00	30.133 
22:30	39.5	39.5	39.5	86	35.7	1	3	270	0.00	30.132 
22:35	39.5	39.5	39.5	86	35.7	2	5	248	0.00	30.132 
22:40	39.5	39.5	39.5	87	36.0	2	7	248	0.00	30.132 
22:45	39.5	39.5	39.5	87	36.0	1	3	248	0.00	30.139 
22:50	39.6	39.6	39.6	87	36.1	1	3	248	0.00	30.139 
22:55	39.5	39.5	39.5	87	36.0	1	3	248	0.00	30.139 
23:00	39.5	39.5	39.5	87	36.0	2	4	248	0.00	30.144 
23:05	39.5	39.5	39.5	87	36.0	2	4	248	0.00	30.144 
23:10	39.5	39.5	39.5	87	36.0	2	4	248	0.00	30.144 
23:15	39.5	39.5	39.5	87	36.0	2	4	248	0.00	30.142 
23:20	39.5	39.5	39.5	87	36.0	2	4	270	0.00	30.142 
23:25	39.5	39.5	39.5	88	36.2	2	5	248	0.00	30.142 
23:30	39.5	39.5	39.5	88	36.2	1	3	248	0.00	30.139 
23:35	39.5	39.5	39.5	88	36.2	1	3	225	0.00	30.139 
23:40	39.5	39.5	39.5	88	36.2	2	6	248	0.00	30.139 
23:45	39.5	39.5	39.5	88	36.2	1	5	270	0.00	30.141 
23:50	39.5	39.5	39.5	88	36.2	2	3	248	0.00	30.141 
23:55	39.3	39.3	39.3	88	36.0	2	3	270	0.00	30.141 

CoCoRaHS
IN-AL-39
A2 Web Hosting
Creative Commons License
GoDaddy
search engine by freefind advanced

loaded 2018-11-12 19:27:03 • last modified 2010-11-18 10:43:29
Privacy PolicyDisclaimer
• wx.awcolley.com is powered by PmWiki v.2002016 •
• all content (unless otherwise noted) © 2018 A W Colley